sensor_id;sensor_type;location;lat;lon;timestamp;pressure;altitude;pressure_sealevel;temperature;humidity
70206;BME280;57593;55.896;37.396;2023-01-31T00:00:03;97381.09;;;0.05;100.00
70206;BME280;57593;55.896;37.396;2023-01-31T00:00:37;97377.91;;;-0.01;100.00
70206;BME280;57593;55.896;37.396;2023-01-31T00:01:11;97374.56;;;-0.02;100.00
70206;BME280;57593;55.896;37.396;2023-01-31T00:01:42;97388.41;;;0.11;100.00
70206;BME280;57593;55.896;37.396;2023-01-31T00:02:13;97385.81;;;0.11;100.00
70206;BME280;57593;55.896;37.396;2023-01-31T00:02:43;97386.00;;;-0.03;100.00
70206;BME280;57593;55.896;37.396;2023-01-31T00:03:14;97381.56;;;0.07;100.00
70206;BME280;57593;55.896;37.396;2023-01-31T00:03:45;97390.09;;;0.07;100.00
70206;BME280;57593;55.896;37.396;2023-01-31T00:04:17;97390.84;;;0.16;100.00
70206;BME280;57593;55.896;37.396;2023-01-31T00:04:47;97388.09;;;0.13;100.00
70206;BME280;57593;55.896;37.396;2023-01-31T00:05:19;97389.63;;;0.14;100.00
70206;BME280;57593;55.896;37.396;2023-01-31T00:05:50;97384.91;;;0.07;100.00
70206;BME280;57593;55.896;37.396;2023-01-31T00:06:29;97388.72;;;0.10;100.00
70206;BME280;57593;55.896;37.396;2023-01-31T00:07:00;97392.81;;;0.20;100.00
70206;BME280;57593;55.896;37.396;2023-01-31T00:07:30;97389.28;;;0.24;100.00
70206;BME280;57593;55.896;37.396;2023-01-31T00:08:01;97394.00;;;0.31;100.00
70206;BME280;57593;55.896;37.396;2023-01-31T00:08:32;97383.63;;;0.31;100.00
70206;BME280;57593;55.896;37.396;2023-01-31T00:09:03;97391.28;;;0.27;100.00
70206;BME280;57593;55.896;37.396;2023-01-31T00:09:35;97395.09;;;0.21;100.00
70206;BME280;57593;55.896;37.396;2023-01-31T00:10:05;97394.50;;;0.24;100.00
70206;BME280;57593;55.896;37.396;2023-01-31T00:10:36;97388.84;;;0.22;100.00
70206;BME280;57593;55.896;37.396;2023-01-31T00:11:07;97396.16;;;0.20;100.00
70206;BME280;57593;55.896;37.396;2023-01-31T00:11:37;97388.06;;;0.30;100.00
70206;BME280;57593;55.896;37.396;2023-01-31T00:12:08;97398.44;;;0.30;100.00
70206;BME280;57593;55.896;37.396;2023-01-31T00:12:39;97384.91;;;0.16;100.00
70206;BME280;57593;55.896;37.396;2023-01-31T00:13:09;97390.72;;;0.04;100.00
70206;BME280;57593;55.896;37.396;2023-01-31T00:13:40;97387.97;;;0.01;100.00
70206;BME280;57593;55.896;37.396;2023-01-31T00:14:16;97389.47;;;0.10;100.00
70206;BME280;57593;55.896;37.396;2023-01-31T00:14:47;97395.28;;;0.16;100.00
70206;BME280;57593;55.896;37.396;2023-01-31T00:15:18;97398.88;;;0.32;100.00
70206;BME280;57593;55.896;37.396;2023-01-31T00:15:48;97399.38;;;0.26;100.00
70206;BME280;57593;55.896;37.396;2023-01-31T00:16:20;97393.88;;;0.27;100.00
70206;BME280;57593;55.896;37.396;2023-01-31T00:16:51;97385.47;;;0.22;100.00
70206;BME280;57593;55.896;37.396;2023-01-31T00:17:21;97383.97;;;0.21;100.00
70206;BME280;57593;55.896;37.396;2023-01-31T00:17:53;97385.94;;;0.24;100.00
70206;BME280;57593;55.896;37.396;2023-01-31T00:18:24;97382.25;;;0.25;100.00
70206;BME280;57593;55.896;37.396;2023-01-31T00:18:55;97385.34;;;0.18;100.00
70206;BME280;57593;55.896;37.396;2023-01-31T00:19:26;97377.38;;;0.23;100.00
70206;BME280;57593;55.896;37.396;2023-01-31T00:19:56;97386.56;;;0.21;100.00
70206;BME280;57593;55.896;37.396;2023-01-31T00:20:27;97398.00;;;0.28;100.00
70206;BME280;57593;55.896;37.396;2023-01-31T00:20:57;97390.97;;;0.29;100.00
70206;BME280;57593;55.896;37.396;2023-01-31T00:21:29;97386.72;;;0.15;100.00
70206;BME280;57593;55.896;37.396;2023-01-31T00:22:00;97388.53;;;0.24;100.00
70206;BME280;57593;55.896;37.396;2023-01-31T00:22:31;97380.59;;;0.20;100.00
70206;BME280;57593;55.896;37.396;2023-01-31T00:23:01;97385.03;;;0.20;100.00
70206;BME280;57593;55.896;37.396;2023-01-31T00:23:32;97385.34;;;0.18;100.00
70206;BME280;57593;55.896;37.396;2023-01-31T00:24:03;97388.38;;;0.29;100.00
70206;BME280;57593;55.896;37.396;2023-01-31T00:24:34;97384.41;;;0.31;100.00
70206;BME280;57593;55.896;37.396;2023-01-31T00:25:06;97392.03;;;0.28;100.00
70206;BME280;57593;55.896;37.396;2023-01-31T00:25:36;97391.69;;;0.38;100.00
70206;BME280;57593;55.896;37.396;2023-01-31T00:26:38;97384.53;;;0.35;100.00
70206;BME280;57593;55.896;37.396;2023-01-31T00:27:08;97391.88;;;0.33;100.00
70206;BME280;57593;55.896;37.396;2023-01-31T00:27:39;97385.91;;;0.32;100.00
70206;BME280;57593;55.896;37.396;2023-01-31T00:28:10;97391.09;;;0.32;100.00
70206;BME280;57593;55.896;37.396;2023-01-31T00:28:41;97382.13;;;0.30;100.00
70206;BME280;57593;55.896;37.396;2023-01-31T00:29:12;97383.63;;;0.31;100.00
70206;BME280;57593;55.896;37.396;2023-01-31T00:29:43;97392.50;;;0.30;100.00
70206;BME280;57593;55.896;37.396;2023-01-31T00:30:14;97391.69;;;0.38;100.00
70206;BME280;57593;55.896;37.396;2023-01-31T00:30:45;97391.09;;;0.32;100.00
70206;BME280;57593;55.896;37.396;2023-01-31T00:31:16;97390.22;;;0.28;100.00
70206;BME280;57593;55.896;37.396;2023-01-31T00:31:47;97394.78;;;0.23;100.00
70206;BME280;57593;55.896;37.396;2023-01-31T00:32:21;97387.44;;;0.25;100.00
70206;BME280;57593;55.896;37.396;2023-01-31T00:32:54;97387.31;;;0.30;100.00
70206;BME280;57593;55.896;37.396;2023-01-31T00:33:24;97388.22;;;0.25;100.00
70206;BME280;57593;55.896;37.396;2023-01-31T00:33:55;97380.75;;;0.24;100.00
70206;BME280;57593;55.896;37.396;2023-01-31T00:34:26;97387.75;;;0.32;100.00
70206;BME280;57593;55.896;37.396;2023-01-31T00:34:57;97384.72;;;0.30;100.00
70206;BME280;57593;55.896;37.396;2023-01-31T00:35:27;97390.47;;;0.35;100.00
70206;BME280;57593;55.896;37.396;2023-01-31T00:35:58;97391.88;;;0.33;100.00
70206;BME280;57593;55.896;37.396;2023-01-31T00:36:32;97392.81;;;0.28;100.00
70206;BME280;57593;55.896;37.396;2023-01-31T00:37:03;97383.63;;;0.31;100.00
70206;BME280;57593;55.896;37.396;2023-01-31T00:37:36;97392.63;;;0.33;100.00
70206;BME280;57593;55.896;37.396;2023-01-31T00:38:07;97394.28;;;0.38;100.00
70206;BME280;57593;55.896;37.396;2023-01-31T00:38:37;97393.22;;;0.39;100.00
70206;BME280;57593;55.896;37.396;2023-01-31T00:39:09;97394.78;;;0.31;100.00
70206;BME280;57593;55.896;37.396;2023-01-31T00:39:40;97391.69;;;0.38;100.00
70206;BME280;57593;55.896;37.396;2023-01-31T00:40:12;97393.56;;;0.29;100.00
70206;BME280;57593;55.896;37.396;2023-01-31T00:40:50;97403.19;;;0.28;100.00
70206;BME280;57593;55.896;37.396;2023-01-31T00:41:23;97399.81;;;0.28;100.00
70206;BME280;57593;55.896;37.396;2023-01-31T00:41:54;97400.16;;;0.17;100.00
70206;BME280;57593;55.896;37.396;2023-01-31T00:42:25;97393.44;;;0.25;100.00
70206;BME280;57593;55.896;37.396;2023-01-31T00:42:55;97392.69;;;0.16;100.00
70206;BME280;57593;55.896;37.396;2023-01-31T00:43:26;97396.03;;;0.25;100.00
70206;BME280;57593;55.896;37.396;2023-01-31T00:43:57;97397.81;;;0.33;100.00
70206;BME280;57593;55.896;37.396;2023-01-31T00:44:28;97398.88;;;0.32;100.00
70206;BME280;57593;55.896;37.396;2023-01-31T00:45:01;97396.16;;;0.29;100.00
70206;BME280;57593;55.896;37.396;2023-01-31T00:45:32;97397.84;;;0.25;100.00
70206;BME280;57593;55.896;37.396;2023-01-31T00:46:03;97399.38;;;0.17;100.00
70206;BME280;57593;55.896;37.396;2023-01-31T00:46:34;97396.66;;;0.13;100.00
70206;BME280;57593;55.896;37.396;2023-01-31T00:47:05;97393.31;;;0.13;100.00
70206;BME280;57593;55.896;37.396;2023-01-31T00:47:35;97390.84;;;0.16;100.00
70206;BME280;57593;55.896;37.396;2023-01-31T00:48:06;97387.19;;;0.17;100.00
70206;BME280;57593;55.896;37.396;2023-01-31T00:48:37;97395.25;;;0.25;100.00
70206;BME280;57593;55.896;37.396;2023-01-31T00:49:08;97388.69;;;0.18;100.00
70206;BME280;57593;55.896;37.396;2023-01-31T00:49:38;97388.09;;;0.13;100.00
70206;BME280;57593;55.896;37.396;2023-01-31T00:50:13;97392.50;;;0.12;100.00
70206;BME280;57593;55.896;37.396;2023-01-31T00:50:44;97400.63;;;0.11;100.00
70206;BME280;57593;55.896;37.396;2023-01-31T00:51:15;97395.41;;;0.11;100.00
70206;BME280;57593;55.896;37.396;2023-01-31T00:51:46;97400.47;;;0.16;100.00
70206;BME280;57593;55.896;37.396;2023-01-31T00:52:17;97401.53;;;0.15;100.00
70206;BME280;57593;55.896;37.396;2023-01-31T00:52:48;97394.97;;;0.09;100.00
70206;BME280;57593;55.896;37.396;2023-01-31T00:53:20;97395.91;;;0.13;100.00
70206;BME280;57593;55.896;37.396;2023-01-31T00:53:53;97400.31;;;0.12;100.00
70206;BME280;57593;55.896;37.396;2023-01-31T00:54:24;97387.19;;;0.09;100.00
70206;BME280;57593;55.896;37.396;2023-01-31T00:54:55;97391.13;;;0.24;100.00
70206;BME280;57593;55.896;37.396;2023-01-31T00:55:26;97397.25;;;0.19;100.00
70206;BME280;57593;55.896;37.396;2023-01-31T00:56:11;97395.09;;;0.21;100.00
70206;BME280;57593;55.896;37.396;2023-01-31T00:56:42;97394.66;;;0.10;100.00
70206;BME280;57593;55.896;37.396;2023-01-31T00:57:14;97393.00;;;0.14;100.00
70206;BME280;57593;55.896;37.396;2023-01-31T00:57:44;97397.88;;;0.16;100.00
70206;BME280;57593;55.896;37.396;2023-01-31T00:58:15;97408.81;;;0.30;100.00
70206;BME280;57593;55.896;37.396;2023-01-31T00:58:46;97404.00;;;0.11;100.00
70206;BME280;57593;55.896;37.396;2023-01-31T00:59:17;97401.84;;;0.05;100.00
70206;BME280;57593;55.896;37.396;2023-01-31T00:59:47;97394.84;;;0.05;100.00
70206;BME280;57593;55.896;37.396;2023-01-31T01:00:18;97398.78;;;0.11;100.00
70206;BME280;57593;55.896;37.396;2023-01-31T01:00:49;97402.16;;;0.12;100.00
70206;BME280;57593;55.896;37.396;2023-01-31T01:01:23;97380.19;;;0.01;100.00
70206;BME280;57593;55.896;37.396;2023-01-31T01:01:55;97393.31;;;0.04;100.00
70206;BME280;57593;55.896;37.396;2023-01-31T01:02:27;97395.31;;;-0.02;100.00
70206;BME280;57593;55.896;37.396;2023-01-31T01:02:57;97383.09;;;-0.01;100.00
70206;BME280;57593;55.896;37.396;2023-01-31T01:03:28;97383.84;;;-0.01;100.00
70206;BME280;57593;55.896;37.396;2023-01-31T01:03:58;97399.41;;;-0.01;100.00
70206;BME280;57593;55.896;37.396;2023-01-31T01:04:29;97402.63;;;0.05;100.00
70206;BME280;57593;55.896;37.396;2023-01-31T01:04:59;97402.00;;;0.08;100.00
70206;BME280;57593;55.896;37.396;2023-01-31T01:05:30;97393.63;;;0.03;100.00
70206;BME280;57593;55.896;37.396;2023-01-31T01:06:01;97391.16;;;0.06;100.00
70206;BME280;57593;55.896;37.396;2023-01-31T01:06:32;97397.28;;;0.02;100.00
70206;BME280;57593;55.896;37.396;2023-01-31T01:07:03;97395.63;;;-0.03;100.00
70206;BME280;57593;55.896;37.396;2023-01-31T01:07:37;97402.63;;;-0.04;100.00
70206;BME280;57593;55.896;37.396;2023-01-31T01:08:07;97401.56;;;-0.03;100.00
70206;BME280;57593;55.896;37.396;2023-01-31T01:08:39;97399.88;;;0.02;100.00
70206;BME280;57593;55.896;37.396;2023-01-31T01:09:09;97399.88;;;0.10;100.00
70206;BME280;57593;55.896;37.396;2023-01-31T01:09:40;97396.50;;;0.10;100.00
70206;BME280;57593;55.896;37.396;2023-01-31T01:10:11;97399.88;;;0.10;100.00
70206;BME280;57593;55.896;37.396;2023-01-31T01:10:42;97399.25;;;0.05;100.00
70206;BME280;57593;55.896;37.396;2023-01-31T01:11:46;97404.63;;;-0.01;100.00
70206;BME280;57593;55.896;37.396;2023-01-31T01:12:16;97406.00;;;-0.03;100.00
70206;BME280;57593;55.896;37.396;2023-01-31T01:12:47;97403.09;;;-0.02;100.00
70206;BME280;57593;55.896;37.396;2023-01-31T01:13:18;97399.41;;;0.08;100.00
70206;BME280;57593;55.896;37.396;2023-01-31T01:13:49;97403.69;;;0.13;100.00
70206;BME280;57593;55.896;37.396;2023-01-31T01:14:19;97400.66;;;0.02;100.00
70206;BME280;57593;55.896;37.396;2023-01-31T01:14:51;97405.97;;;0.06;100.00
70206;BME280;57593;55.896;37.396;2023-01-31T01:15:21;97412.09;;;0.10;100.00
70206;BME280;57593;55.896;37.396;2023-01-31T01:15:52;97402.63;;;0.05;100.00
70206;BME280;57593;55.896;37.396;2023-01-31T01:16:25;97407.34;;;0.03;100.00
70206;BME280;57593;55.896;37.396;2023-01-31T01:16:56;97402.66;;;-0.12;100.00
70206;BME280;57593;55.896;37.396;2023-01-31T01:17:29;97409.34;;;-0.11;100.00
70206;BME280;57593;55.896;37.396;2023-01-31T01:17:59;97405.84;;;-0.07;100.00
70206;BME280;57593;55.896;37.396;2023-01-31T01:18:30;97397.56;;;0.09;100.00
70206;BME280;57593;55.896;37.396;2023-01-31T01:19:06;97394.53;;;0.07;100.00
70206;BME280;57593;55.896;37.396;2023-01-31T01:19:37;97398.81;;;0.03;100.00
70206;BME280;57593;55.896;37.396;2023-01-31T01:20:09;97389.47;;;0.02;100.00
70206;BME280;57593;55.896;37.396;2023-01-31T01:20:42;97397.28;;;0.02;100.00
70206;BME280;57593;55.896;37.396;2023-01-31T01:21:18;97395.47;;;0.02;100.00
70206;BME280;57593;55.896;37.396;2023-01-31T01:21:49;97394.69;;;0.02;100.00
70206;BME280;57593;55.896;37.396;2023-01-31T01:22:20;97390.72;;;0.04;100.00
70206;BME280;57593;55.896;37.396;2023-01-31T01:22:50;97391.00;;;0.03;100.00
70206;BME280;57593;55.896;37.396;2023-01-31T01:23:21;97394.53;;;0.07;100.00
70206;BME280;57593;55.896;37.396;2023-01-31T01:23:55;97392.56;;;-0.05;100.00
70206;BME280;57593;55.896;37.396;2023-01-31T01:24:25;97399.41;;;-0.01;100.00
70206;BME280;57593;55.896;37.396;2023-01-31T01:24:57;97404.91;;;0.07;100.00
70206;BME280;57593;55.896;37.396;2023-01-31T01:25:28;97404.88;;;0.15;100.00
70206;BME280;57593;55.896;37.396;2023-01-31T01:26:03;97402.28;;;0.15;100.00
70206;BME280;57593;55.896;37.396;2023-01-31T01:26:34;97391.47;;;0.05;100.00
70206;BME280;57593;55.896;37.396;2023-01-31T01:27:08;97400.47;;;0.07;100.00
70206;BME280;57593;55.896;37.396;2023-01-31T01:27:39;97403.38;;;0.14;100.00
70206;BME280;57593;55.896;37.396;2023-01-31T01:28:09;97402.59;;;0.14;100.00
70206;BME280;57593;55.896;37.396;2023-01-31T01:28:40;97395.63;;;-0.03;100.00
70206;BME280;57593;55.896;37.396;2023-01-31T01:29:11;97406.59;;;0.03;100.00
70206;BME280;57593;55.896;37.396;2023-01-31T01:29:42;97405.53;;;0.04;100.00
70206;BME280;57593;55.896;37.396;2023-01-31T01:30:13;97407.34;;;0.12;100.00
70206;BME280;57593;55.896;37.396;2023-01-31T01:30:44;97408.69;;;0.18;100.00
70206;BME280;57593;55.896;37.396;2023-01-31T01:31:16;97401.84;;;0.22;100.00
70206;BME280;57593;55.896;37.396;2023-01-31T01:31:48;97411.13;;;0.32;100.00
70206;BME280;57593;55.896;37.396;2023-01-31T01:32:19;97412.50;;;0.29;100.00
70206;BME280;57593;55.896;37.396;2023-01-31T01:32:50;97415.44;;;0.19;100.00
70206;BME280;57593;55.896;37.396;2023-01-31T01:33:20;97407.16;;;0.17;100.00
70206;BME280;57593;55.896;37.396;2023-01-31T01:33:51;97410.84;;;0.16;100.00
70206;BME280;57593;55.896;37.396;2023-01-31T01:34:21;97409.00;;;0.16;100.00
70206;BME280;57593;55.896;37.396;2023-01-31T01:34:52;97414.19;;;0.16;100.00
70206;BME280;57593;55.896;37.396;2023-01-31T01:35:23;97414.81;;;0.22;100.00
70206;BME280;57593;55.896;37.396;2023-01-31T01:35:59;97415.56;;;0.31;100.00
70206;BME280;57593;55.896;37.396;2023-01-31T01:36:35;97411.56;;;0.34;100.00
70206;BME280;57593;55.896;37.396;2023-01-31T01:37:08;97405.50;;;0.21;100.00
70206;BME280;57593;55.896;37.396;2023-01-31T01:37:41;97407.28;;;0.29;100.00
70206;BME280;57593;55.896;37.396;2023-01-31T01:38:12;97403.38;;;0.14;100.00
70206;BME280;57593;55.896;37.396;2023-01-31T01:38:44;97401.09;;;0.13;100.00
70206;BME280;57593;55.896;37.396;2023-01-31T01:39:15;97407.94;;;0.17;100.00
70206;BME280;57593;55.896;37.396;2023-01-31T01:39:47;97407.16;;;0.26;100.00
70206;BME280;57593;55.896;37.396;2023-01-31T01:40:18;97412.78;;;0.28;100.00
70206;BME280;57593;55.896;37.396;2023-01-31T01:40:48;97409.13;;;0.29;100.00
70206;BME280;57593;55.896;37.396;2023-01-31T01:41:20;97415.69;;;0.26;100.00
70206;BME280;57593;55.896;37.396;2023-01-31T01:41:54;97404.00;;;0.03;100.00
70206;BME280;57593;55.896;37.396;2023-01-31T01:42:25;97409.50;;;0.01;100.00
70206;BME280;57593;55.896;37.396;2023-01-31T01:42:56;97403.69;;;0.04;100.00
70206;BME280;57593;55.896;37.396;2023-01-31T01:43:44;97404.91;;;0.07;100.00
70206;BME280;57593;55.896;37.396;2023-01-31T01:44:53;97406.28;;;0.04;100.00
70206;BME280;57593;55.896;37.396;2023-01-31T01:45:25;97410.09;;;-0.02;100.00
70206;BME280;57593;55.896;37.396;2023-01-31T01:45:56;97417.44;;;-0.04;100.00
70206;BME280;57593;55.896;37.396;2023-01-31T01:46:31;97418.03;;;0.02;100.00
70206;BME280;57593;55.896;37.396;2023-01-31T01:47:03;97425.50;;;0.03;100.00
70206;BME280;57593;55.896;37.396;2023-01-31T01:47:43;97419.72;;;0.06;100.00
70206;BME280;57593;55.896;37.396;2023-01-31T01:48:16;97411.63;;;0.08;100.00
70206;BME280;57593;55.896;37.396;2023-01-31T01:48:50;97421.38;;;0.11;100.00
70206;BME280;57593;55.896;37.396;2023-01-31T01:49:30;97408.69;;;0.18;100.00
70206;BME280;57593;55.896;37.396;2023-01-31T01:50:24;97412.22;;;0.13;100.00
70206;BME280;57593;55.896;37.396;2023-01-31T01:50:57;97407.94;;;0.17;100.00
70206;BME280;57593;55.896;37.396;2023-01-31T01:51:31;97419.53;;;0.20;100.00
70206;BME280;57593;55.896;37.396;2023-01-31T01:52:06;97414.63;;;0.27;100.00
70206;BME280;57593;55.896;37.396;2023-01-31T01:53:02;97406.09;;;0.18;100.00
70206;BME280;57593;55.896;37.396;2023-01-31T01:53:38;97402.28;;;0.15;100.00
70206;BME280;57593;55.896;37.396;2023-01-31T01:54:15;97397.09;;;0.15;100.00
70206;BME280;57593;55.896;37.396;2023-01-31T01:54:56;97408.84;;;0.22;100.00
70206;BME280;57593;55.896;37.396;2023-01-31T01:56:35;97404.91;;;0.07;100.00
70206;BME280;57593;55.896;37.396;2023-01-31T01:57:10;97413.16;;;0.09;100.00
70206;BME280;57593;55.896;37.396;2023-01-31T01:57:43;97404.44;;;0.13;100.00
70206;BME280;57593;55.896;37.396;2023-01-31T01:59:04;97403.94;;;0.20;100.00
70206;BME280;57593;55.896;37.396;2023-01-31T01:59:44;97405.00;;;0.28;100.00
70206;BME280;57593;55.896;37.396;2023-01-31T02:00:23;97403.47;;;0.35;100.00
70206;BME280;57593;55.896;37.396;2023-01-31T02:00:56;97409.28;;;0.32;100.00
70206;BME280;57593;55.896;37.396;2023-01-31T02:01:33;97410.38;;;0.31;100.00
70206;BME280;57593;55.896;37.396;2023-01-31T02:02:06;97401.66;;;0.18;100.00
70206;BME280;57593;55.896;37.396;2023-01-31T02:02:36;97389.03;;;0.08;100.00
70206;BME280;57593;55.896;37.396;2023-01-31T02:03:08;97396.03;;;0.16;100.00
70206;BME280;57593;55.896;37.396;2023-01-31T02:03:40;97403.81;;;0.25;100.00
70206;BME280;57593;55.896;37.396;2023-01-31T02:04:14;97403.66;;;0.22;100.00
70206;BME280;57593;55.896;37.396;2023-01-31T02:04:48;97391.88;;;0.24;100.00
70206;BME280;57593;55.896;37.396;2023-01-31T02:05:25;97394.00;;;0.31;100.00
70206;BME280;57593;55.896;37.396;2023-01-31T02:06:01;97398.25;;;0.35;100.00
70206;BME280;57593;55.896;37.396;2023-01-31T02:06:33;97392.31;;;0.44;100.00
70206;BME280;57593;55.896;37.396;2023-01-31T02:07:04;97401.03;;;0.39;100.00
70206;BME280;57593;55.896;37.396;2023-01-31T02:07:36;97401.16;;;0.43;100.00
70206;BME280;57593;55.896;37.396;2023-01-31T02:08:07;97398.88;;;0.41;100.00
70206;BME280;57593;55.896;37.396;2023-01-31T02:08:41;97397.69;;;0.30;100.00
70206;BME280;57593;55.896;37.396;2023-01-31T02:09:30;97391.91;;;0.15;100.00
70206;BME280;57593;55.896;37.396;2023-01-31T02:10:05;97397.41;;;0.14;100.00
70206;BME280;57593;55.896;37.396;2023-01-31T02:10:48;97388.41;;;0.11;100.00
70206;BME280;57593;55.896;37.396;2023-01-31T02:11:21;97397.88;;;0.16;100.00
70206;BME280;57593;55.896;37.396;2023-01-31T02:11:52;97392.06;;;0.19;100.00
70206;BME280;57593;55.896;37.396;2023-01-31T02:12:25;97396.66;;;0.13;100.00
70206;BME280;57593;55.896;37.396;2023-01-31T02:12:55;97390.53;;;0.09;100.00
70206;BME280;57593;55.896;37.396;2023-01-31T02:13:27;97402.47;;;0.10;100.00
70206;BME280;57593;55.896;37.396;2023-01-31T02:14:03;97396.78;;;0.17;100.00
70206;BME280;57593;55.896;37.396;2023-01-31T02:14:37;97395.41;;;0.11;100.00
70206;BME280;57593;55.896;37.396;2023-01-31T02:15:08;97397.25;;;0.10;100.00
70206;BME280;57593;55.896;37.396;2023-01-31T02:15:39;97402.44;;;0.19;100.00
70206;BME280;57593;55.896;37.396;2023-01-31T02:16:10;97408.84;;;0.22;100.00
70206;BME280;57593;55.896;37.396;2023-01-31T02:16:41;97401.97;;;0.26;100.00
70206;BME280;57593;55.896;37.396;2023-01-31T02:17:13;97404.69;;;0.29;100.00
70206;BME280;57593;55.896;37.396;2023-01-31T02:17:46;97402.09;;;0.29;100.00
70206;BME280;57593;55.896;37.396;2023-01-31T02:18:18;97399.97;;;0.31;100.00
70206;BME280;57593;55.896;37.396;2023-01-31T02:18:51;97400.44;;;0.25;100.00
70206;BME280;57593;55.896;37.396;2023-01-31T02:19:42;97403.94;;;0.38;100.00
70206;BME280;57593;55.896;37.396;2023-01-31T02:20:37;97404.56;;;0.34;100.00
70206;BME280;57593;55.896;37.396;2023-01-31T02:24:46;97404.25;;;0.27;100.00
70206;BME280;57593;55.896;37.396;2023-01-31T02:26:29;97396.03;;;0.08;100.00
70206;BME280;57593;55.896;37.396;2023-01-31T02:28:00;97399.88;;;0.10;100.00
70206;BME280;57593;55.896;37.396;2023-01-31T02:28:26;97408.56;;;0.14;100.00
70206;BME280;57593;55.896;37.396;2023-01-31T02:33:29;97398.63;;;0.16;100.00
70206;BME280;57593;55.896;37.396;2023-01-31T02:34:54;97410.66;;;0.30;100.00
70206;BME280;57593;55.896;37.396;2023-01-31T02:36:30;97403.78;;;0.34;100.00
70206;BME280;57593;55.896;37.396;2023-01-31T02:37:15;97404.59;;;0.08;100.00
70206;BME280;57593;55.896;37.396;2023-01-31T02:42:38;97398.94;;;0.06;100.00
70206;BME280;57593;55.896;37.396;2023-01-31T02:43:56;97405.81;;;0.11;100.00
70206;BME280;57593;55.896;37.396;2023-01-31T02:45:18;97411.78;;;0.11;100.00
70206;BME280;57593;55.896;37.396;2023-01-31T02:45:54;97406.72;;;0.15;100.00
70206;BME280;57593;55.896;37.396;2023-01-31T02:46:57;97400.63;;;0.11;100.00
70206;BME280;57593;55.896;37.396;2023-01-31T02:48:14;97409.31;;;0.15;100.00
70206;BME280;57593;55.896;37.396;2023-01-31T02:48:56;97399.72;;;0.07;100.00
70206;BME280;57593;55.896;37.396;2023-01-31T02:51:23;97395.75;;;0.01;100.00
70206;BME280;57593;55.896;37.396;2023-01-31T02:51:57;97410.59;;;-0.09;100.00
70206;BME280;57593;55.896;37.396;2023-01-31T02:53:36;97394.56;;;-0.11;100.00
70206;BME280;57593;55.896;37.396;2023-01-31T02:54:20;97402.94;;;-0.05;100.00
70206;BME280;57593;55.896;37.396;2023-01-31T02:56:13;97402.63;;;-0.04;100.00
70206;BME280;57593;55.896;37.396;2023-01-31T02:56:51;97400.81;;;-0.12;100.00
70206;BME280;57593;55.896;37.396;2023-01-31T02:57:23;97396.06;;;-0.10;100.00
70206;BME280;57593;55.896;37.396;2023-01-31T02:57:56;97385.06;;;-0.07;100.00
70206;BME280;57593;55.896;37.396;2023-01-31T02:58:31;97397.75;;;-0.05;100.00
70206;BME280;57593;55.896;37.396;2023-01-31T02:59:13;97397.91;;;-0.02;100.00
70206;BME280;57593;55.896;37.396;2023-01-31T02:59:45;97397.28;;;0.02;100.00
70206;BME280;57593;55.896;37.396;2023-01-31T03:00:17;97404.44;;;0.05;100.00
70206;BME280;57593;55.896;37.396;2023-01-31T03:00:48;97412.06;;;0.18;100.00
70206;BME280;57593;55.896;37.396;2023-01-31T03:01:30;97402.75;;;0.09;100.00
70206;BME280;57593;55.896;37.396;2023-01-31T03:02:01;97397.56;;;0.09;100.00
70206;BME280;57593;55.896;37.396;2023-01-31T03:02:32;97397.44;;;0.05;100.00
70206;BME280;57593;55.896;37.396;2023-01-31T03:03:07;97392.56;;;0.04;100.00
70206;BME280;57593;55.896;37.396;2023-01-31T03:03:38;97397.75;;;0.04;100.00
70206;BME280;57593;55.896;37.396;2023-01-31T03:04:10;97408.44;;;0.02;100.00
70206;BME280;57593;55.896;37.396;2023-01-31T03:04:41;97410.41;;;0.05;100.00
70206;BME280;57593;55.896;37.396;2023-01-31T03:05:16;97410.09;;;0.07;100.00
70206;BME280;57593;55.896;37.396;2023-01-31T03:06:10;97410.38;;;0.14;100.00
70206;BME280;57593;55.896;37.396;2023-01-31T03:07:28;97415.09;;;0.29;100.00
70206;BME280;57593;55.896;37.396;2023-01-31T03:08:04;97413.84;;;0.35;100.00
70206;BME280;57593;55.896;37.396;2023-01-31T03:08:39;97414.31;;;0.38;100.00
70206;BME280;57593;55.896;37.396;2023-01-31T03:09:17;97419.50;;;0.38;100.00
70206;BME280;57593;55.896;37.396;2023-01-31T03:11:16;97409.75;;;0.17;100.00
70206;BME280;57593;55.896;37.396;2023-01-31T03:14:16;97419.41;;;0.16;100.00
70206;BME280;57593;55.896;37.396;2023-01-31T03:15:47;97418.78;;;0.28;100.00
70206;BME280;57593;55.896;37.396;2023-01-31T03:16:51;97422.41;;;0.36;100.00
70206;BME280;57593;55.896;37.396;2023-01-31T03:18:06;97427.19;;;0.08;100.00
70206;BME280;57593;55.896;37.396;2023-01-31T03:19:12;97413.44;;;0.16;100.00
70206;BME280;57593;55.896;37.396;2023-01-31T03:21:31;97420.78;;;0.05;100.00
70206;BME280;57593;55.896;37.396;2023-01-31T03:22:08;97422.16;;;0.11;100.00
70206;BME280;57593;55.896;37.396;2023-01-31T03:22:44;97428.09;;;0.03;100.00
70206;BME280;57593;55.896;37.396;2023-01-31T03:23:20;97420.50;;;0.07;100.00
70206;BME280;57593;55.896;37.396;2023-01-31T03:23:54;97422.16;;;0.03;100.00
70206;BME280;57593;55.896;37.396;2023-01-31T03:24:27;97420.78;;;-0.04;100.00
70206;BME280;57593;55.896;37.396;2023-01-31T03:25:01;97421.72;;;0.01;100.00
70206;BME280;57593;55.896;37.396;2023-01-31T03:25:36;97427.66;;;0.10;100.00
70206;BME280;57593;55.896;37.396;2023-01-31T03:26:10;97425.50;;;0.12;100.00
70206;BME280;57593;55.896;37.396;2023-01-31T03:26:42;97429.47;;;0.09;100.00
70206;BME280;57593;55.896;37.396;2023-01-31T03:27:14;97428.88;;;0.12;100.00
70206;BME280;57593;55.896;37.396;2023-01-31T03:27:57;97432.06;;;0.27;100.00